sensor_id;sensor_type;location;lat;lon;timestamp;temperature;humidity
26408;DHT22;14583;43.604;1.364;2023-04-25T00:02:18;14.80;99.90
26408;DHT22;14583;43.604;1.364;2023-04-25T00:04:44;14.80;99.90
26408;DHT22;14583;43.604;1.364;2023-04-25T00:07:10;14.80;99.90
26408;DHT22;14583;43.604;1.364;2023-04-25T00:09:36;14.80;99.90
26408;DHT22;14583;43.604;1.364;2023-04-25T00:12:02;14.80;99.90
26408;DHT22;14583;43.604;1.364;2023-04-25T00:14:28;14.80;99.90
26408;DHT22;14583;43.604;1.364;2023-04-25T00:16:54;14.80;99.90
26408;DHT22;14583;43.604;1.364;2023-04-25T00:19:20;14.80;99.90
26408;DHT22;14583;43.604;1.364;2023-04-25T00:21:45;14.80;99.90
26408;DHT22;14583;43.604;1.364;2023-04-25T00:24:12;14.80;99.90
26408;DHT22;14583;43.604;1.364;2023-04-25T00:26:38;14.80;99.90
26408;DHT22;14583;43.604;1.364;2023-04-25T00:29:03;14.80;99.90
26408;DHT22;14583;43.604;1.364;2023-04-25T00:31:29;14.80;99.90
26408;DHT22;14583;43.604;1.364;2023-04-25T00:33:55;14.80;99.90
26408;DHT22;14583;43.604;1.364;2023-04-25T00:36:21;14.80;99.90
26408;DHT22;14583;43.604;1.364;2023-04-25T00:38:47;14.80;99.90
26408;DHT22;14583;43.604;1.364;2023-04-25T00:41:13;14.80;99.90
26408;DHT22;14583;43.604;1.364;2023-04-25T00:43:39;14.80;99.90
26408;DHT22;14583;43.604;1.364;2023-04-25T00:46:05;14.80;99.90
26408;DHT22;14583;43.604;1.364;2023-04-25T00:48:31;14.80;99.90
26408;DHT22;14583;43.604;1.364;2023-04-25T00:50:58;14.80;99.90
26408;DHT22;14583;43.604;1.364;2023-04-25T00:53:25;14.80;99.90
26408;DHT22;14583;43.604;1.364;2023-04-25T00:55:52;14.90;99.90
26408;DHT22;14583;43.604;1.364;2023-04-25T00:58:22;14.80;99.90
26408;DHT22;14583;43.604;1.364;2023-04-25T01:00:49;14.90;99.90
26408;DHT22;14583;43.604;1.364;2023-04-25T01:03:16;14.90;99.90
26408;DHT22;14583;43.604;1.364;2023-04-25T01:05:43;14.70;99.90
26408;DHT22;14583;43.604;1.364;2023-04-25T01:08:09;14.80;99.90
26408;DHT22;14583;43.604;1.364;2023-04-25T01:10:36;14.80;99.90
26408;DHT22;14583;43.604;1.364;2023-04-25T01:13:02;14.80;99.90
26408;DHT22;14583;43.604;1.364;2023-04-25T01:15:28;14.80;99.90
26408;DHT22;14583;43.604;1.364;2023-04-25T01:17:54;14.80;99.90
26408;DHT22;14583;43.604;1.364;2023-04-25T01:20:23;14.80;99.90
26408;DHT22;14583;43.604;1.364;2023-04-25T01:22:50;14.80;99.90
26408;DHT22;14583;43.604;1.364;2023-04-25T01:25:18;14.60;99.90
26408;DHT22;14583;43.604;1.364;2023-04-25T01:27:44;14.60;99.90
26408;DHT22;14583;43.604;1.364;2023-04-25T01:30:10;14.50;99.90
26408;DHT22;14583;43.604;1.364;2023-04-25T01:32:36;14.40;99.90
26408;DHT22;14583;43.604;1.364;2023-04-25T01:35:07;14.40;99.90
26408;DHT22;14583;43.604;1.364;2023-04-25T01:37:45;14.40;99.90
26408;DHT22;14583;43.604;1.364;2023-04-25T01:40:12;14.40;99.90
26408;DHT22;14583;43.604;1.364;2023-04-25T01:42:41;14.40;99.90
26408;DHT22;14583;43.604;1.364;2023-04-25T01:45:08;14.40;99.90
26408;DHT22;14583;43.604;1.364;2023-04-25T01:47:34;14.40;99.90
26408;DHT22;14583;43.604;1.364;2023-04-25T01:50:05;14.50;99.90
26408;DHT22;14583;43.604;1.364;2023-04-25T01:52:31;14.40;99.90
26408;DHT22;14583;43.604;1.364;2023-04-25T01:54:59;14.50;99.90
26408;DHT22;14583;43.604;1.364;2023-04-25T01:57:26;14.60;99.90
26408;DHT22;14583;43.604;1.364;2023-04-25T01:59:53;14.60;99.90
26408;DHT22;14583;43.604;1.364;2023-04-25T02:02:23;14.70;99.90
26408;DHT22;14583;43.604;1.364;2023-04-25T02:04:49;14.70;99.90
26408;DHT22;14583;43.604;1.364;2023-04-25T02:07:15;14.70;99.90
26408;DHT22;14583;43.604;1.364;2023-04-25T02:09:41;14.60;99.90
26408;DHT22;14583;43.604;1.364;2023-04-25T02:12:08;14.60;99.90
26408;DHT22;14583;43.604;1.364;2023-04-25T02:14:34;14.60;99.90
26408;DHT22;14583;43.604;1.364;2023-04-25T02:17:00;14.50;99.90
26408;DHT22;14583;43.604;1.364;2023-04-25T02:19:25;14.50;99.90
26408;DHT22;14583;43.604;1.364;2023-04-25T02:21:51;14.50;99.90
26408;DHT22;14583;43.604;1.364;2023-04-25T02:24:17;14.50;99.90
26408;DHT22;14583;43.604;1.364;2023-04-25T02:26:42;14.40;99.90
26408;DHT22;14583;43.604;1.364;2023-04-25T02:29:09;14.40;99.90
26408;DHT22;14583;43.604;1.364;2023-04-25T02:31:35;14.50;99.90
26408;DHT22;14583;43.604;1.364;2023-04-25T02:34:01;14.60;99.90
26408;DHT22;14583;43.604;1.364;2023-04-25T02:36:26;14.60;99.90
26408;DHT22;14583;43.604;1.364;2023-04-25T02:38:53;14.70;99.90
26408;DHT22;14583;43.604;1.364;2023-04-25T02:41:18;14.60;99.90
26408;DHT22;14583;43.604;1.364;2023-04-25T02:43:44;14.50;99.90
26408;DHT22;14583;43.604;1.364;2023-04-25T02:46:09;14.50;99.90
26408;DHT22;14583;43.604;1.364;2023-04-25T02:48:35;14.50;99.90
26408;DHT22;14583;43.604;1.364;2023-04-25T02:51:01;14.60;99.90
26408;DHT22;14583;43.604;1.364;2023-04-25T02:53:26;14.60;99.90
26408;DHT22;14583;43.604;1.364;2023-04-25T02:55:52;14.60;99.90
26408;DHT22;14583;43.604;1.364;2023-04-25T02:58:18;14.60;99.90
26408;DHT22;14583;43.604;1.364;2023-04-25T03:00:44;14.60;99.90
26408;DHT22;14583;43.604;1.364;2023-04-25T03:03:10;14.60;99.90
26408;DHT22;14583;43.604;1.364;2023-04-25T03:05:36;14.50;99.90
26408;DHT22;14583;43.604;1.364;2023-04-25T03:08:01;14.50;99.90
26408;DHT22;14583;43.604;1.364;2023-04-25T03:10:27;14.40;99.90
26408;DHT22;14583;43.604;1.364;2023-04-25T03:12:53;14.40;99.90
26408;DHT22;14583;43.604;1.364;2023-04-25T03:15:18;14.40;99.90
26408;DHT22;14583;43.604;1.364;2023-04-25T03:17:44;14.40;99.90
26408;DHT22;14583;43.604;1.364;2023-04-25T03:20:10;14.40;99.90
26408;DHT22;14583;43.604;1.364;2023-04-25T03:22:36;14.40;99.90
26408;DHT22;14583;43.604;1.364;2023-04-25T03:25:02;14.40;99.90
26408;DHT22;14583;43.604;1.364;2023-04-25T03:27:28;14.40;99.90
26408;DHT22;14583;43.604;1.364;2023-04-25T03:29:53;14.40;99.90
26408;DHT22;14583;43.604;1.364;2023-04-25T03:32:19;14.40;99.90
26408;DHT22;14583;43.604;1.364;2023-04-25T03:34:45;14.50;99.90
26408;DHT22;14583;43.604;1.364;2023-04-25T03:37:10;14.50;99.90
26408;DHT22;14583;43.604;1.364;2023-04-25T03:39:36;14.50;99.90
26408;DHT22;14583;43.604;1.364;2023-04-25T03:42:03;14.50;99.90
26408;DHT22;14583;43.604;1.364;2023-04-25T03:44:28;14.50;99.90
26408;DHT22;14583;43.604;1.364;2023-04-25T03:46:54;14.40;99.90
26408;DHT22;14583;43.604;1.364;2023-04-25T03:49:19;14.40;99.90
26408;DHT22;14583;43.604;1.364;2023-04-25T03:51:46;14.50;99.90
26408;DHT22;14583;43.604;1.364;2023-04-25T03:54:11;14.50;99.90
26408;DHT22;14583;43.604;1.364;2023-04-25T03:56:37;14.50;99.90
26408;DHT22;14583;43.604;1.364;2023-04-25T03:59:03;14.40;99.90
26408;DHT22;14583;43.604;1.364;2023-04-25T04:01:28;14.40;99.90
26408;DHT22;14583;43.604;1.364;2023-04-25T04:03:54;14.40;99.90
26408;DHT22;14583;43.604;1.364;2023-04-25T04:06:20;14.30;99.90
26408;DHT22;14583;43.604;1.364;2023-04-25T04:08:46;14.30;99.90
26408;DHT22;14583;43.604;1.364;2023-04-25T04:11:12;14.30;99.90
26408;DHT22;14583;43.604;1.364;2023-04-25T04:13:38;14.40;99.90
26408;DHT22;14583;43.604;1.364;2023-04-25T04:16:03;14.30;99.90
26408;DHT22;14583;43.604;1.364;2023-04-25T04:18:30;14.30;99.90
26408;DHT22;14583;43.604;1.364;2023-04-25T04:20:55;14.40;99.90
26408;DHT22;14583;43.604;1.364;2023-04-25T04:23:23;14.30;99.90
26408;DHT22;14583;43.604;1.364;2023-04-25T04:25:49;14.20;99.90
26408;DHT22;14583;43.604;1.364;2023-04-25T04:28:14;14.20;99.90
26408;DHT22;14583;43.604;1.364;2023-04-25T04:30:41;14.20;99.90
26408;DHT22;14583;43.604;1.364;2023-04-25T04:33:08;14.20;99.90
26408;DHT22;14583;43.604;1.364;2023-04-25T04:35:34;14.40;99.90
26408;DHT22;14583;43.604;1.364;2023-04-25T04:38:00;14.40;99.90
26408;DHT22;14583;43.604;1.364;2023-04-25T04:40:25;14.30;99.90
26408;DHT22;14583;43.604;1.364;2023-04-25T04:42:51;14.20;99.90
26408;DHT22;14583;43.604;1.364;2023-04-25T04:45:18;14.30;99.90
26408;DHT22;14583;43.604;1.364;2023-04-25T04:47:44;14.30;99.90
26408;DHT22;14583;43.604;1.364;2023-04-25T04:50:11;14.20;99.90
26408;DHT22;14583;43.604;1.364;2023-04-25T04:52:37;14.30;99.90
26408;DHT22;14583;43.604;1.364;2023-04-25T04:55:04;14.40;99.90
26408;DHT22;14583;43.604;1.364;2023-04-25T04:57:29;14.40;99.90
26408;DHT22;14583;43.604;1.364;2023-04-25T04:59:56;14.40;99.90
26408;DHT22;14583;43.604;1.364;2023-04-25T05:02:22;14.40;99.90
26408;DHT22;14583;43.604;1.364;2023-04-25T05:04:47;14.30;99.90
26408;DHT22;14583;43.604;1.364;2023-04-25T05:07:13;14.30;99.90
26408;DHT22;14583;43.604;1.364;2023-04-25T05:09:39;14.30;99.90
26408;DHT22;14583;43.604;1.364;2023-04-25T05:12:05;14.40;99.90
26408;DHT22;14583;43.604;1.364;2023-04-25T05:14:30;14.30;99.90
26408;DHT22;14583;43.604;1.364;2023-04-25T05:16:56;14.30;99.90
26408;DHT22;14583;43.604;1.364;2023-04-25T05:19:22;14.30;99.90
26408;DHT22;14583;43.604;1.364;2023-04-25T05:21:48;14.40;99.90
26408;DHT22;14583;43.604;1.364;2023-04-25T05:24:14;14.30;99.90
26408;DHT22;14583;43.604;1.364;2023-04-25T05:26:40;14.40;99.90
26408;DHT22;14583;43.604;1.364;2023-04-25T05:29:06;14.50;99.90
26408;DHT22;14583;43.604;1.364;2023-04-25T05:31:32;14.60;99.90
26408;DHT22;14583;43.604;1.364;2023-04-25T05:33:58;14.60;99.90
26408;DHT22;14583;43.604;1.364;2023-04-25T05:36:23;14.60;99.90
26408;DHT22;14583;43.604;1.364;2023-04-25T05:38:49;14.60;99.90
26408;DHT22;14583;43.604;1.364;2023-04-25T05:41:15;14.50;99.90
26408;DHT22;14583;43.604;1.364;2023-04-25T05:43:40;14.50;99.90
26408;DHT22;14583;43.604;1.364;2023-04-25T05:46:10;14.50;99.90
26408;DHT22;14583;43.604;1.364;2023-04-25T05:48:37;14.60;99.90
26408;DHT22;14583;43.604;1.364;2023-04-25T05:51:02;14.60;99.90
26408;DHT22;14583;43.604;1.364;2023-04-25T05:53:28;14.70;99.90
26408;DHT22;14583;43.604;1.364;2023-04-25T05:55:54;14.70;99.90
26408;DHT22;14583;43.604;1.364;2023-04-25T05:58:19;14.70;99.90
26408;DHT22;14583;43.604;1.364;2023-04-25T06:00:45;14.70;99.90
26408;DHT22;14583;43.604;1.364;2023-04-25T06:03:11;14.70;99.90
26408;DHT22;14583;43.604;1.364;2023-04-25T06:05:41;14.70;99.90
26408;DHT22;14583;43.604;1.364;2023-04-25T06:08:06;14.70;99.90
26408;DHT22;14583;43.604;1.364;2023-04-25T06:10:32;14.80;99.90
26408;DHT22;14583;43.604;1.364;2023-04-25T06:12:58;14.90;99.90
26408;DHT22;14583;43.604;1.364;2023-04-25T06:15:23;14.90;99.90
26408;DHT22;14583;43.604;1.364;2023-04-25T06:17:49;15.00;99.90
26408;DHT22;14583;43.604;1.364;2023-04-25T06:20:15;15.00;99.90
26408;DHT22;14583;43.604;1.364;2023-04-25T06:22:41;14.90;99.90
26408;DHT22;14583;43.604;1.364;2023-04-25T06:25:07;14.90;99.90
26408;DHT22;14583;43.604;1.364;2023-04-25T06:27:34;15.00;99.90
26408;DHT22;14583;43.604;1.364;2023-04-25T06:29:59;15.00;99.90
26408;DHT22;14583;43.604;1.364;2023-04-25T06:32:25;15.10;99.90
26408;DHT22;14583;43.604;1.364;2023-04-25T06:34:53;15.10;99.90
26408;DHT22;14583;43.604;1.364;2023-04-25T06:37:18;15.20;99.90
26408;DHT22;14583;43.604;1.364;2023-04-25T06:39:44;15.30;99.90
26408;DHT22;14583;43.604;1.364;2023-04-25T06:42:10;15.40;99.90
26408;DHT22;14583;43.604;1.364;2023-04-25T06:44:36;15.40;99.90
26408;DHT22;14583;43.604;1.364;2023-04-25T06:47:01;15.40;99.90
26408;DHT22;14583;43.604;1.364;2023-04-25T06:49:30;15.40;99.90
26408;DHT22;14583;43.604;1.364;2023-04-25T06:51:56;15.40;99.90
26408;DHT22;14583;43.604;1.364;2023-04-25T06:54:21;15.30;99.90
26408;DHT22;14583;43.604;1.364;2023-04-25T06:56:47;15.30;99.90
26408;DHT22;14583;43.604;1.364;2023-04-25T06:59:13;15.20;99.90
26408;DHT22;14583;43.604;1.364;2023-04-25T07:01:39;15.30;99.90
26408;DHT22;14583;43.604;1.364;2023-04-25T07:04:05;15.30;99.90
26408;DHT22;14583;43.604;1.364;2023-04-25T07:06:31;15.30;99.90
26408;DHT22;14583;43.604;1.364;2023-04-25T07:08:57;15.30;99.90
26408;DHT22;14583;43.604;1.364;2023-04-25T07:11:23;15.30;99.90
26408;DHT22;14583;43.604;1.364;2023-04-25T07:13:48;15.30;99.90
26408;DHT22;14583;43.604;1.364;2023-04-25T07:16:14;15.30;99.90
26408;DHT22;14583;43.604;1.364;2023-04-25T07:18:39;15.40;99.90
26408;DHT22;14583;43.604;1.364;2023-04-25T07:21:05;15.50;99.90
26408;DHT22;14583;43.604;1.364;2023-04-25T07:23:31;15.50;99.90
26408;DHT22;14583;43.604;1.364;2023-04-25T07:25:56;15.40;99.90
26408;DHT22;14583;43.604;1.364;2023-04-25T07:28:22;15.20;99.90
26408;DHT22;14583;43.604;1.364;2023-04-25T07:30:48;15.00;99.90
26408;DHT22;14583;43.604;1.364;2023-04-25T07:33:13;14.90;99.90
26408;DHT22;14583;43.604;1.364;2023-04-25T07:35:39;14.80;99.90
26408;DHT22;14583;43.604;1.364;2023-04-25T07:38:05;14.90;99.90
26408;DHT22;14583;43.604;1.364;2023-04-25T07:40:32;14.90;99.90
26408;DHT22;14583;43.604;1.364;2023-04-25T07:42:57;14.90;99.90
26408;DHT22;14583;43.604;1.364;2023-04-25T07:45:23;14.90;99.90
26408;DHT22;14583;43.604;1.364;2023-04-25T07:47:49;14.80;99.90
26408;DHT22;14583;43.604;1.364;2023-04-25T07:50:15;14.80;99.90
26408;DHT22;14583;43.604;1.364;2023-04-25T07:52:41;14.80;99.90
26408;DHT22;14583;43.604;1.364;2023-04-25T07:55:07;14.80;99.90
26408;DHT22;14583;43.604;1.364;2023-04-25T07:57:32;14.70;99.90
26408;DHT22;14583;43.604;1.364;2023-04-25T07:59:58;14.70;99.90
26408;DHT22;14583;43.604;1.364;2023-04-25T08:02:23;14.70;99.90
26408;DHT22;14583;43.604;1.364;2023-04-25T08:04:51;14.60;99.90
26408;DHT22;14583;43.604;1.364;2023-04-25T08:07:17;14.60;99.90
26408;DHT22;14583;43.604;1.364;2023-04-25T08:09:42;14.60;99.90
26408;DHT22;14583;43.604;1.364;2023-04-25T08:12:08;14.60;99.90
26408;DHT22;14583;43.604;1.364;2023-04-25T08:14:34;14.60;99.90
26408;DHT22;14583;43.604;1.364;2023-04-25T08:17:03;14.60;99.90
26408;DHT22;14583;43.604;1.364;2023-04-25T08:19:29;14.70;99.90
26408;DHT22;14583;43.604;1.364;2023-04-25T08:21:56;14.70;99.90
26408;DHT22;14583;43.604;1.364;2023-04-25T08:24:22;14.70;99.90
26408;DHT22;14583;43.604;1.364;2023-04-25T08:26:48;14.80;99.90
26408;DHT22;14583;43.604;1.364;2023-04-25T08:29:14;14.80;99.90
26408;DHT22;14583;43.604;1.364;2023-04-25T08:31:39;14.80;99.90
26408;DHT22;14583;43.604;1.364;2023-04-25T08:34:05;14.80;99.90
26408;DHT22;14583;43.604;1.364;2023-04-25T08:36:31;14.70;99.90
26408;DHT22;14583;43.604;1.364;2023-04-25T08:38:58;14.70;99.90
26408;DHT22;14583;43.604;1.364;2023-04-25T08:41:24;14.70;99.90
26408;DHT22;14583;43.604;1.364;2023-04-25T08:43:51;14.70;99.90
26408;DHT22;14583;43.604;1.364;2023-04-25T08:46:19;14.70;99.90
26408;DHT22;14583;43.604;1.364;2023-04-25T08:48:45;14.70;99.90
26408;DHT22;14583;43.604;1.364;2023-04-25T08:51:18;14.70;99.90
26408;DHT22;14583;43.604;1.364;2023-04-25T08:53:49;14.60;99.90
26408;DHT22;14583;43.604;1.364;2023-04-25T08:56:16;14.60;99.90
26408;DHT22;14583;43.604;1.364;2023-04-25T08:58:49;14.50;99.90
26408;DHT22;14583;43.604;1.364;2023-04-25T09:01:18;14.60;99.90
26408;DHT22;14583;43.604;1.364;2023-04-25T09:03:44;14.60;99.90
26408;DHT22;14583;43.604;1.364;2023-04-25T09:06:12;14.60;99.90
26408;DHT22;14583;43.604;1.364;2023-04-25T09:08:38;14.60;99.90
26408;DHT22;14583;43.604;1.364;2023-04-25T09:11:06;14.60;99.90
26408;DHT22;14583;43.604;1.364;2023-04-25T09:13:32;14.60;99.90
26408;DHT22;14583;43.604;1.364;2023-04-25T09:15:58;14.60;99.90
26408;DHT22;14583;43.604;1.364;2023-04-25T09:18:27;14.70;99.90
26408;DHT22;14583;43.604;1.364;2023-04-25T09:20:57;14.80;99.90
26408;DHT22;14583;43.604;1.364;2023-04-25T09:23:24;14.80;99.90
26408;DHT22;14583;43.604;1.364;2023-04-25T09:25:51;14.80;99.90
26408;DHT22;14583;43.604;1.364;2023-04-25T09:28:24;14.70;99.90
26408;DHT22;14583;43.604;1.364;2023-04-25T09:30:55;14.70;99.90
26408;DHT22;14583;43.604;1.364;2023-04-25T09:33:28;14.70;99.90
26408;DHT22;14583;43.604;1.364;2023-04-25T09:36:10;14.80;99.90
26408;DHT22;14583;43.604;1.364;2023-04-25T09:38:45;14.80;99.90
26408;DHT22;14583;43.604;1.364;2023-04-25T09:41:11;14.80;99.90
26408;DHT22;14583;43.604;1.364;2023-04-25T09:43:38;14.70;99.90
26408;DHT22;14583;43.604;1.364;2023-04-25T09:46:09;14.70;99.90
26408;DHT22;14583;43.604;1.364;2023-04-25T09:48:36;14.70;99.90
26408;DHT22;14583;43.604;1.364;2023-04-25T09:51:11;14.60;99.90
26408;DHT22;14583;43.604;1.364;2023-04-25T09:53:41;14.60;99.90
26408;DHT22;14583;43.604;1.364;2023-04-25T09:56:09;14.60;99.90
26408;DHT22;14583;43.604;1.364;2023-04-25T09:58:36;14.60;99.90
26408;DHT22;14583;43.604;1.364;2023-04-25T10:01:04;14.70;99.90
26408;DHT22;14583;43.604;1.364;2023-04-25T10:03:32;14.80;99.90
26408;DHT22;14583;43.604;1.364;2023-04-25T10:06:08;14.80;99.90
26408;DHT22;14583;43.604;1.364;2023-04-25T10:08:36;14.90;99.90
26408;DHT22;14583;43.604;1.364;2023-04-25T10:11:03;14.90;99.90
26408;DHT22;14583;43.604;1.364;2023-04-25T10:13:30;14.90;99.90
26408;DHT22;14583;43.604;1.364;2023-04-25T10:16:02;14.90;99.90
26408;DHT22;14583;43.604;1.364;2023-04-25T10:18:29;14.90;99.90
26408;DHT22;14583;43.604;1.364;2023-04-25T10:20:57;15.00;99.90
26408;DHT22;14583;43.604;1.364;2023-04-25T10:23:23;15.20;99.90
26408;DHT22;14583;43.604;1.364;2023-04-25T10:25:53;15.30;99.90
26408;DHT22;14583;43.604;1.364;2023-04-25T10:28:20;15.50;99.90
26408;DHT22;14583;43.604;1.364;2023-04-25T10:30:59;15.60;99.90
26408;DHT22;14583;43.604;1.364;2023-04-25T10:33:35;15.70;99.90
26408;DHT22;14583;43.604;1.364;2023-04-25T10:36:17;15.70;99.90
26408;DHT22;14583;43.604;1.364;2023-04-25T10:38:44;15.60;99.90
26408;DHT22;14583;43.604;1.364;2023-04-25T10:41:12;15.50;99.90
26408;DHT22;14583;43.604;1.364;2023-04-25T10:43:42;15.40;99.90
26408;DHT22;14583;43.604;1.364;2023-04-25T10:46:17;15.40;99.90
26408;DHT22;14583;43.604;1.364;2023-04-25T10:48:51;15.40;99.90
26408;DHT22;14583;43.604;1.364;2023-04-25T10:51:22;15.50;99.90
26408;DHT22;14583;43.604;1.364;2023-04-25T10:54:08;15.40;99.90
26408;DHT22;14583;43.604;1.364;2023-04-25T10:56:38;15.40;99.90
26408;DHT22;14583;43.604;1.364;2023-04-25T10:59:12;15.40;99.90
26408;DHT22;14583;43.604;1.364;2023-04-25T11:01:44;15.40;99.90
26408;DHT22;14583;43.604;1.364;2023-04-25T11:04:29;15.30;99.90
26408;DHT22;14583;43.604;1.364;2023-04-25T11:09:37;15.50;99.90
26408;DHT22;14583;43.604;1.364;2023-04-25T11:12:03;15.50;99.90
26408;DHT22;14583;43.604;1.364;2023-04-25T11:14:30;15.50;99.90
26408;DHT22;14583;43.604;1.364;2023-04-25T11:16:57;15.50;99.90
26408;DHT22;14583;43.604;1.364;2023-04-25T11:19:24;15.60;99.90
26408;DHT22;14583;43.604;1.364;2023-04-25T11:21:50;15.60;99.90
26408;DHT22;14583;43.604;1.364;2023-04-25T11:24:17;15.70;99.90
26408;DHT22;14583;43.604;1.364;2023-04-25T11:26:43;15.80;99.90
26408;DHT22;14583;43.604;1.364;2023-04-25T11:29:09;15.80;99.90
26408;DHT22;14583;43.604;1.364;2023-04-25T11:31:34;15.90;99.90
26408;DHT22;14583;43.604;1.364;2023-04-25T11:34:00;15.80;99.90
26408;DHT22;14583;43.604;1.364;2023-04-25T11:36:26;15.80;99.90
26408;DHT22;14583;43.604;1.364;2023-04-25T11:38:53;15.80;99.90
26408;DHT22;14583;43.604;1.364;2023-04-25T11:41:22;15.80;99.90
26408;DHT22;14583;43.604;1.364;2023-04-25T11:43:48;15.80;99.90
26408;DHT22;14583;43.604;1.364;2023-04-25T11:46:15;15.80;99.90
26408;DHT22;14583;43.604;1.364;2023-04-25T11:48:42;15.80;99.90
26408;DHT22;14583;43.604;1.364;2023-04-25T11:51:08;15.80;99.90
26408;DHT22;14583;43.604;1.364;2023-04-25T11:53:35;15.80;99.90
26408;DHT22;14583;43.604;1.364;2023-04-25T11:56:01;15.80;99.90
26408;DHT22;14583;43.604;1.364;2023-04-25T11:58:27;15.70;99.90
26408;DHT22;14583;43.604;1.364;2023-04-25T12:00:53;15.70;99.90
26408;DHT22;14583;43.604;1.364;2023-04-25T12:03:19;15.70;99.90
26408;DHT22;14583;43.604;1.364;2023-04-25T12:05:50;15.60;99.90
26408;DHT22;14583;43.604;1.364;2023-04-25T12:08:16;15.60;99.90
26408;DHT22;14583;43.604;1.364;2023-04-25T12:10:43;15.60;99.90
26408;DHT22;14583;43.604;1.364;2023-04-25T12:13:26;15.80;99.90
26408;DHT22;14583;43.604;1.364;2023-04-25T12:15:56;16.00;99.90
26408;DHT22;14583;43.604;1.364;2023-04-25T12:18:25;16.20;99.90
26408;DHT22;14583;43.604;1.364;2023-04-25T12:20:53;16.30;99.90
26408;DHT22;14583;43.604;1.364;2023-04-25T12:23:28;16.20;99.90
26408;DHT22;14583;43.604;1.364;2023-04-25T12:25:53;16.20;99.90
26408;DHT22;14583;43.604;1.364;2023-04-25T12:28:24;16.30;99.90
26408;DHT22;14583;43.604;1.364;2023-04-25T12:31:04;16.40;99.90
26408;DHT22;14583;43.604;1.364;2023-04-25T12:33:35;16.40;99.90
26408;DHT22;14583;43.604;1.364;2023-04-25T12:36:03;16.30;99.90
26408;DHT22;14583;43.604;1.364;2023-04-25T12:38:38;16.20;99.90
26408;DHT22;14583;43.604;1.364;2023-04-25T12:41:04;16.20;99.90
26408;DHT22;14583;43.604;1.364;2023-04-25T12:43:30;16.30;99.90
26408;DHT22;14583;43.604;1.364;2023-04-25T12:45:56;16.20;99.90
26408;DHT22;14583;43.604;1.364;2023-04-25T12:48:22;16.10;99.90
26408;DHT22;14583;43.604;1.364;2023-04-25T12:50:49;16.10;99.90
26408;DHT22;14583;43.604;1.364;2023-04-25T12:53:19;16.20;99.90
26408;DHT22;14583;43.604;1.364;2023-04-25T12:55:46;16.30;99.90
26408;DHT22;14583;43.604;1.364;2023-04-25T12:58:13;16.30;99.90
26408;DHT22;14583;43.604;1.364;2023-04-25T13:00:39;16.30;99.90
26408;DHT22;14583;43.604;1.364;2023-04-25T13:03:04;16.30;99.90
26408;DHT22;14583;43.604;1.364;2023-04-25T13:05:30;16.30;99.90
26408;DHT22;14583;43.604;1.364;2023-04-25T13:07:56;16.30;99.90
26408;DHT22;14583;43.604;1.364;2023-04-25T13:10:22;16.30;99.90
26408;DHT22;14583;43.604;1.364;2023-04-25T13:12:48;16.30;99.90
26408;DHT22;14583;43.604;1.364;2023-04-25T13:15:14;16.40;99.90
26408;DHT22;14583;43.604;1.364;2023-04-25T13:17:41;16.50;99.90
26408;DHT22;14583;43.604;1.364;2023-04-25T13:20:07;16.40;99.90
26408;DHT22;14583;43.604;1.364;2023-04-25T13:22:38;16.40;99.90
26408;DHT22;14583;43.604;1.364;2023-04-25T13:25:06;16.40;99.90
26408;DHT22;14583;43.604;1.364;2023-04-25T13:27:32;16.30;99.90
26408;DHT22;14583;43.604;1.364;2023-04-25T13:30:00;16.20;99.90
26408;DHT22;14583;43.604;1.364;2023-04-25T13:32:26;16.20;99.90
26408;DHT22;14583;43.604;1.364;2023-04-25T13:34:53;16.30;99.90
26408;DHT22;14583;43.604;1.364;2023-04-25T13:37:18;16.40;99.90
26408;DHT22;14583;43.604;1.364;2023-04-25T13:39:44;16.60;99.90
26408;DHT22;14583;43.604;1.364;2023-04-25T13:42:10;16.70;99.90
26408;DHT22;14583;43.604;1.364;2023-04-25T13:44:36;16.80;99.90
26408;DHT22;14583;43.604;1.364;2023-04-25T13:47:02;16.70;99.90
26408;DHT22;14583;43.604;1.364;2023-04-25T13:49:28;16.60;99.90
26408;DHT22;14583;43.604;1.364;2023-04-25T13:51:53;16.50;99.90
26408;DHT22;14583;43.604;1.364;2023-04-25T13:54:19;16.40;99.90
26408;DHT22;14583;43.604;1.364;2023-04-25T13:56:45;16.40;99.90
26408;DHT22;14583;43.604;1.364;2023-04-25T13:59:11;16.40;99.90
26408;DHT22;14583;43.604;1.364;2023-04-25T14:01:36;16.40;99.90
26408;DHT22;14583;43.604;1.364;2023-04-25T14:04:02;16.30;99.90
26408;DHT22;14583;43.604;1.364;2023-04-25T14:06:31;16.40;99.90
26408;DHT22;14583;43.604;1.364;2023-04-25T14:08:57;16.50;99.90
26408;DHT22;14583;43.604;1.364;2023-04-25T14:11:25;16.50;99.90
26408;DHT22;14583;43.604;1.364;2023-04-25T14:13:51;16.50;99.90
26408;DHT22;14583;43.604;1.364;2023-04-25T14:16:17;16.50;99.90
26408;DHT22;14583;43.604;1.364;2023-04-25T14:18:42;16.50;99.90
26408;DHT22;14583;43.604;1.364;2023-04-25T14:21:08;16.30;99.90
26408;DHT22;14583;43.604;1.364;2023-04-25T14:23:34;16.10;99.90
26408;DHT22;14583;43.604;1.364;2023-04-25T14:26:00;16.10;99.90
26408;DHT22;14583;43.604;1.364;2023-04-25T14:28:26;16.10;99.90
26408;DHT22;14583;43.604;1.364;2023-04-25T14:30:51;16.30;99.90
26408;DHT22;14583;43.604;1.364;2023-04-25T14:33:17;16.40;99.90
26408;DHT22;14583;43.604;1.364;2023-04-25T14:35:43;16.40;99.90
26408;DHT22;14583;43.604;1.364;2023-04-25T14:38:08;16.40;99.90
26408;DHT22;14583;43.604;1.364;2023-04-25T14:40:34;16.50;99.90
26408;DHT22;14583;43.604;1.364;2023-04-25T14:43:00;16.50;99.90
26408;DHT22;14583;43.604;1.364;2023-04-25T14:45:25;16.60;99.90
26408;DHT22;14583;43.604;1.364;2023-04-25T14:47:51;16.60;99.90
26408;DHT22;14583;43.604;1.364;2023-04-25T14:50:17;16.60;99.90
26408;DHT22;14583;43.604;1.364;2023-04-25T14:52:42;16.50;99.90
26408;DHT22;14583;43.604;1.364;2023-04-25T14:55:09;16.40;99.90
26408;DHT22;14583;43.604;1.364;2023-04-25T14:57:35;16.40;99.90
26408;DHT22;14583;43.604;1.364;2023-04-25T15:00:01;16.30;99.90
26408;DHT22;14583;43.604;1.364;2023-04-25T15:02:28;16.30;99.90
26408;DHT22;14583;43.604;1.364;2023-04-25T15:04:54;16.20;99.90
26408;DHT22;14583;43.604;1.364;2023-04-25T15:07:21;16.10;99.90
26408;DHT22;14583;43.604;1.364;2023-04-25T15:09:47;16.00;99.90
26408;DHT22;14583;43.604;1.364;2023-04-25T15:12:13;16.00;99.90
26408;DHT22;14583;43.604;1.364;2023-04-25T15:14:39;16.10;99.90
26408;DHT22;14583;43.604;1.364;2023-04-25T15:17:05;16.10;99.90
26408;DHT22;14583;43.604;1.364;2023-04-25T15:19:31;16.20;99.90
26408;DHT22;14583;43.604;1.364;2023-04-25T15:21:57;16.20;99.90
26408;DHT22;14583;43.604;1.364;2023-04-25T15:24:25;16.10;99.90
26408;DHT22;14583;43.604;1.364;2023-04-25T15:26:51;15.90;99.90
26408;DHT22;14583;43.604;1.364;2023-04-25T15:29:17;15.90;99.90
26408;DHT22;14583;43.604;1.364;2023-04-25T15:31:43;16.00;99.90